sensor_id;sensor_type;location;lat;lon;timestamp;P1;durP1;ratioP1;P2;durP2;ratioP2
11957;SDS011;6039;52.576;13.348;2023-04-25T00:05:03;3.50;;;2.50;;
11957;SDS011;6039;52.576;13.348;2023-04-25T00:10:08;2.73;;;2.30;;
11957;SDS011;6039;52.576;13.348;2023-04-25T00:15:13;4.87;;;2.47;;
11957;SDS011;6039;52.576;13.348;2023-04-25T00:20:20;3.77;;;2.20;;
11957;SDS011;6039;52.576;13.348;2023-04-25T00:25:24;3.60;;;2.00;;
11957;SDS011;6039;52.576;13.348;2023-04-25T00:30:28;3.13;;;1.93;;
11957;SDS011;6039;52.576;13.348;2023-04-25T00:35:35;2.30;;;1.70;;
11957;SDS011;6039;52.576;13.348;2023-04-25T00:40:39;3.60;;;2.00;;
11957;SDS011;6039;52.576;13.348;2023-04-25T00:45:43;2.73;;;1.93;;
11957;SDS011;6039;52.576;13.348;2023-04-25T00:50:54;2.73;;;1.83;;
11957;SDS011;6039;52.576;13.348;2023-04-25T00:56:00;3.83;;;2.03;;
11957;SDS011;6039;52.576;13.348;2023-04-25T01:01:04;3.67;;;2.07;;
11957;SDS011;6039;52.576;13.348;2023-04-25T01:06:12;3.20;;;2.00;;
11957;SDS011;6039;52.576;13.348;2023-04-25T01:11:16;4.17;;;2.00;;
11957;SDS011;6039;52.576;13.348;2023-04-25T01:16:20;4.53;;;2.10;;
11957;SDS011;6039;52.576;13.348;2023-04-25T01:21:29;5.07;;;2.60;;
11957;SDS011;6039;52.576;13.348;2023-04-25T01:26:33;5.03;;;2.23;;
11957;SDS011;6039;52.576;13.348;2023-04-25T01:31:37;3.80;;;2.10;;
11957;SDS011;6039;52.576;13.348;2023-04-25T01:36:44;3.63;;;2.13;;
11957;SDS011;6039;52.576;13.348;2023-04-25T01:41:48;4.97;;;2.17;;
11957;SDS011;6039;52.576;13.348;2023-04-25T01:46:53;4.43;;;2.20;;
11957;SDS011;6039;52.576;13.348;2023-04-25T01:52:00;3.13;;;2.13;;
11957;SDS011;6039;52.576;13.348;2023-04-25T01:57:04;6.87;;;2.63;;
11957;SDS011;6039;52.576;13.348;2023-04-25T02:02:08;4.27;;;2.20;;
11957;SDS011;6039;52.576;13.348;2023-04-25T02:07:14;6.27;;;2.50;;
11957;SDS011;6039;52.576;13.348;2023-04-25T02:12:18;3.03;;;2.27;;
11957;SDS011;6039;52.576;13.348;2023-04-25T02:17:22;3.83;;;2.13;;
11957;SDS011;6039;52.576;13.348;2023-04-25T02:22:29;2.50;;;2.10;;
11957;SDS011;6039;52.576;13.348;2023-04-25T02:27:34;3.37;;;2.47;;
11957;SDS011;6039;52.576;13.348;2023-04-25T02:32:38;3.67;;;2.63;;
11957;SDS011;6039;52.576;13.348;2023-04-25T02:37:45;4.17;;;2.57;;
11957;SDS011;6039;52.576;13.348;2023-04-25T02:42:49;4.47;;;2.90;;
11957;SDS011;6039;52.576;13.348;2023-04-25T02:47:53;6.53;;;3.10;;
11957;SDS011;6039;52.576;13.348;2023-04-25T02:52:59;4.40;;;2.87;;
11957;SDS011;6039;52.576;13.348;2023-04-25T02:58:04;4.23;;;2.80;;
11957;SDS011;6039;52.576;13.348;2023-04-25T03:03:08;4.97;;;3.03;;
11957;SDS011;6039;52.576;13.348;2023-04-25T03:08:14;5.87;;;3.20;;
11957;SDS011;6039;52.576;13.348;2023-04-25T03:13:21;4.67;;;2.60;;
11957;SDS011;6039;52.576;13.348;2023-04-25T03:18:25;4.00;;;2.80;;
11957;SDS011;6039;52.576;13.348;2023-04-25T03:23:32;8.47;;;2.60;;
11957;SDS011;6039;52.576;13.348;2023-04-25T03:28:36;4.57;;;2.67;;
11957;SDS011;6039;52.576;13.348;2023-04-25T03:33:40;7.17;;;3.03;;
11957;SDS011;6039;52.576;13.348;2023-04-25T03:38:47;5.10;;;3.10;;
11957;SDS011;6039;52.576;13.348;2023-04-25T03:43:51;5.70;;;3.17;;
11957;SDS011;6039;52.576;13.348;2023-04-25T03:48:55;5.17;;;3.20;;
11957;SDS011;6039;52.576;13.348;2023-04-25T03:54:01;4.73;;;3.10;;
11957;SDS011;6039;52.576;13.348;2023-04-25T03:59:07;6.23;;;2.77;;
11957;SDS011;6039;52.576;13.348;2023-04-25T04:04:11;7.37;;;2.93;;
11957;SDS011;6039;52.576;13.348;2023-04-25T04:09:18;3.73;;;2.47;;
11957;SDS011;6039;52.576;13.348;2023-04-25T04:14:21;3.77;;;2.70;;
11957;SDS011;6039;52.576;13.348;2023-04-25T04:19:25;5.73;;;2.93;;
11957;SDS011;6039;52.576;13.348;2023-04-25T04:24:32;3.90;;;2.93;;
11957;SDS011;6039;52.576;13.348;2023-04-25T04:29:36;6.63;;;2.87;;
11957;SDS011;6039;52.576;13.348;2023-04-25T04:34:40;5.17;;;3.03;;
11957;SDS011;6039;52.576;13.348;2023-04-25T04:39:47;6.13;;;3.00;;
11957;SDS011;6039;52.576;13.348;2023-04-25T04:44:51;4.43;;;2.50;;
11957;SDS011;6039;52.576;13.348;2023-04-25T04:49:55;7.07;;;2.87;;
11957;SDS011;6039;52.576;13.348;2023-04-25T04:55:02;4.63;;;2.77;;
11957;SDS011;6039;52.576;13.348;2023-04-25T05:00:08;4.53;;;2.80;;
11957;SDS011;6039;52.576;13.348;2023-04-25T05:05:13;7.73;;;2.77;;
11957;SDS011;6039;52.576;13.348;2023-04-25T05:10:20;6.37;;;2.93;;
11957;SDS011;6039;52.576;13.348;2023-04-25T05:15:24;4.20;;;2.70;;
11957;SDS011;6039;52.576;13.348;2023-04-25T05:20:28;4.90;;;2.57;;
11957;SDS011;6039;52.576;13.348;2023-04-25T05:25:35;4.47;;;2.77;;
11957;SDS011;6039;52.576;13.348;2023-04-25T05:30:39;4.73;;;2.93;;
11957;SDS011;6039;52.576;13.348;2023-04-25T05:35:43;3.63;;;2.70;;
11957;SDS011;6039;52.576;13.348;2023-04-25T05:40:49;6.77;;;2.67;;
11957;SDS011;6039;52.576;13.348;2023-04-25T05:45:54;6.33;;;2.70;;
11957;SDS011;6039;52.576;13.348;2023-04-25T05:50:58;7.10;;;3.23;;
11957;SDS011;6039;52.576;13.348;2023-04-25T05:56:04;5.27;;;3.10;;
11957;SDS011;6039;52.576;13.348;2023-04-25T06:01:08;5.80;;;2.97;;
11957;SDS011;6039;52.576;13.348;2023-04-25T06:06:12;4.07;;;3.07;;
11957;SDS011;6039;52.576;13.348;2023-04-25T06:11:19;7.20;;;3.90;;
11957;SDS011;6039;52.576;13.348;2023-04-25T06:16:23;6.10;;;3.67;;
11957;SDS011;6039;52.576;13.348;2023-04-25T06:21:27;6.43;;;3.80;;
11957;SDS011;6039;52.576;13.348;2023-04-25T06:26:34;4.97;;;3.77;;
11957;SDS011;6039;52.576;13.348;2023-04-25T06:31:38;8.43;;;3.47;;
11957;SDS011;6039;52.576;13.348;2023-04-25T06:36:42;6.47;;;4.03;;
11957;SDS011;6039;52.576;13.348;2023-04-25T06:41:49;8.23;;;4.23;;
11957;SDS011;6039;52.576;13.348;2023-04-25T06:46:53;6.70;;;3.60;;
11957;SDS011;6039;52.576;13.348;2023-04-25T06:51:57;5.73;;;3.63;;
11957;SDS011;6039;52.576;13.348;2023-04-25T06:57:04;6.40;;;3.37;;
11957;SDS011;6039;52.576;13.348;2023-04-25T07:02:08;8.93;;;3.20;;
11957;SDS011;6039;52.576;13.348;2023-04-25T07:07:12;5.20;;;3.60;;
11957;SDS011;6039;52.576;13.348;2023-04-25T07:12:19;5.90;;;3.00;;
11957;SDS011;6039;52.576;13.348;2023-04-25T07:17:23;5.20;;;2.90;;
11957;SDS011;6039;52.576;13.348;2023-04-25T07:22:27;4.53;;;2.83;;
11957;SDS011;6039;52.576;13.348;2023-04-25T07:27:34;4.73;;;2.70;;
11957;SDS011;6039;52.576;13.348;2023-04-25T07:32:38;6.10;;;3.03;;
11957;SDS011;6039;52.576;13.348;2023-04-25T07:37:42;5.23;;;2.60;;
11957;SDS011;6039;52.576;13.348;2023-04-25T07:42:49;5.33;;;2.33;;
11957;SDS011;6039;52.576;13.348;2023-04-25T07:47:53;4.43;;;2.47;;
11957;SDS011;6039;52.576;13.348;2023-04-25T07:52:57;9.73;;;3.03;;
11957;SDS011;6039;52.576;13.348;2023-04-25T07:58:03;5.10;;;2.30;;
11957;SDS011;6039;52.576;13.348;2023-04-25T08:03:09;7.03;;;2.37;;
11957;SDS011;6039;52.576;13.348;2023-04-25T08:08:13;9.50;;;2.93;;
11957;SDS011;6039;52.576;13.348;2023-04-25T08:13:19;9.50;;;2.80;;
11957;SDS011;6039;52.576;13.348;2023-04-25T08:18:23;6.27;;;2.97;;
11957;SDS011;6039;52.576;13.348;2023-04-25T08:23:27;7.17;;;2.60;;
11957;SDS011;6039;52.576;13.348;2023-04-25T08:28:34;7.13;;;2.67;;
11957;SDS011;6039;52.576;13.348;2023-04-25T08:33:38;6.70;;;2.40;;
11957;SDS011;6039;52.576;13.348;2023-04-25T08:38:42;12.63;;;2.97;;
11957;SDS011;6039;52.576;13.348;2023-04-25T08:43:49;6.33;;;2.50;;
11957;SDS011;6039;52.576;13.348;2023-04-25T08:48:53;5.13;;;2.10;;
11957;SDS011;6039;52.576;13.348;2023-04-25T08:54:03;5.57;;;1.73;;
11957;SDS011;6039;52.576;13.348;2023-04-25T08:59:14;9.00;;;1.80;;
11957;SDS011;6039;52.576;13.348;2023-04-25T09:04:18;3.87;;;1.90;;
11957;SDS011;6039;52.576;13.348;2023-04-25T09:09:23;4.97;;;1.97;;
11957;SDS011;6039;52.576;13.348;2023-04-25T09:14:30;2.83;;;1.63;;
11957;SDS011;6039;52.576;13.348;2023-04-25T09:19:35;5.10;;;1.87;;
11957;SDS011;6039;52.576;13.348;2023-04-25T09:24:40;3.30;;;1.77;;
11957;SDS011;6039;52.576;13.348;2023-04-25T09:29:48;9.30;;;2.30;;
11957;SDS011;6039;52.576;13.348;2023-04-25T09:35:00;5.23;;;2.37;;
11957;SDS011;6039;52.576;13.348;2023-04-25T09:40:05;1.97;;;1.57;;
11957;SDS011;6039;52.576;13.348;2023-04-25T09:45:14;2.93;;;1.67;;
11957;SDS011;6039;52.576;13.348;2023-04-25T09:50:18;3.87;;;1.57;;
11957;SDS011;6039;52.576;13.348;2023-04-25T09:55:24;3.87;;;1.50;;
11957;SDS011;6039;52.576;13.348;2023-04-25T10:00:31;4.73;;;2.03;;
11957;SDS011;6039;52.576;13.348;2023-04-25T10:05:36;3.73;;;2.00;;
11957;SDS011;6039;52.576;13.348;2023-04-25T10:10:40;4.53;;;2.43;;
11957;SDS011;6039;52.576;13.348;2023-04-25T10:15:47;3.53;;;1.90;;
11957;SDS011;6039;52.576;13.348;2023-04-25T10:20:52;6.17;;;1.93;;
11957;SDS011;6039;52.576;13.348;2023-04-25T10:25:56;2.87;;;1.63;;
11957;SDS011;6039;52.576;13.348;2023-04-25T10:31:04;3.53;;;1.43;;
11957;SDS011;6039;52.576;13.348;2023-04-25T10:36:10;1.80;;;1.33;;
11957;SDS011;6039;52.576;13.348;2023-04-25T10:41:15;4.10;;;1.40;;
11957;SDS011;6039;52.576;13.348;2023-04-25T10:46:24;4.30;;;1.73;;
11957;SDS011;6039;52.576;13.348;2023-04-25T10:51:30;3.67;;;1.60;;
11957;SDS011;6039;52.576;13.348;2023-04-25T10:56:36;5.70;;;2.20;;
11957;SDS011;6039;52.576;13.348;2023-04-25T11:01:44;5.23;;;1.90;;
11957;SDS011;6039;52.576;13.348;2023-04-25T11:07:00;3.93;;;2.10;;
11957;SDS011;6039;52.576;13.348;2023-04-25T11:12:08;6.60;;;1.60;;
11957;SDS011;6039;52.576;13.348;2023-04-25T11:17:15;3.33;;;1.50;;
11957;SDS011;6039;52.576;13.348;2023-04-25T11:22:19;5.67;;;2.20;;
11957;SDS011;6039;52.576;13.348;2023-04-25T11:27:24;4.07;;;1.97;;
11957;SDS011;6039;52.576;13.348;2023-04-25T11:32:31;4.30;;;1.73;;
11957;SDS011;6039;52.576;13.348;2023-04-25T11:37:36;3.43;;;1.30;;
11957;SDS011;6039;52.576;13.348;2023-04-25T11:42:43;5.37;;;1.70;;
11957;SDS011;6039;52.576;13.348;2023-04-25T11:47:51;2.73;;;1.53;;
11957;SDS011;6039;52.576;13.348;2023-04-25T11:52:56;2.70;;;1.60;;
11957;SDS011;6039;52.576;13.348;2023-04-25T11:58:00;1.83;;;1.27;;
11957;SDS011;6039;52.576;13.348;2023-04-25T12:03:08;2.57;;;1.50;;
11957;SDS011;6039;52.576;13.348;2023-04-25T12:08:13;2.40;;;1.30;;
11957;SDS011;6039;52.576;13.348;2023-04-25T12:13:21;3.30;;;1.40;;
11957;SDS011;6039;52.576;13.348;2023-04-25T12:18:29;3.20;;;1.67;;
11957;SDS011;6039;52.576;13.348;2023-04-25T12:23:33;2.83;;;1.60;;
11957;SDS011;6039;52.576;13.348;2023-04-25T12:28:38;2.23;;;1.40;;
11957;SDS011;6039;52.576;13.348;2023-04-25T12:33:45;2.20;;;1.53;;
11957;SDS011;6039;52.576;13.348;2023-04-25T12:38:49;5.43;;;1.57;;
11957;SDS011;6039;52.576;13.348;2023-04-25T12:43:53;2.70;;;1.40;;
11957;SDS011;6039;52.576;13.348;2023-04-25T12:48:59;2.03;;;1.50;;
11957;SDS011;6039;52.576;13.348;2023-04-25T12:54:04;3.43;;;1.83;;
11957;SDS011;6039;52.576;13.348;2023-04-25T12:59:08;3.63;;;1.60;;
11957;SDS011;6039;52.576;13.348;2023-04-25T13:04:15;3.57;;;1.73;;
11957;SDS011;6039;52.576;13.348;2023-04-25T13:09:20;2.30;;;1.30;;
11957;SDS011;6039;52.576;13.348;2023-04-25T13:14:25;3.83;;;1.50;;
11957;SDS011;6039;52.576;13.348;2023-04-25T13:19:31;4.87;;;1.20;;
11957;SDS011;6039;52.576;13.348;2023-04-25T13:24:35;3.53;;;1.30;;
11957;SDS011;6039;52.576;13.348;2023-04-25T13:29:39;3.93;;;1.30;;
11957;SDS011;6039;52.576;13.348;2023-04-25T13:34:46;3.57;;;1.40;;
11957;SDS011;6039;52.576;13.348;2023-04-25T13:39:50;7.40;;;1.70;;
11957;SDS011;6039;52.576;13.348;2023-04-25T13:44:55;1.67;;;1.20;;
11957;SDS011;6039;52.576;13.348;2023-04-25T13:50:01;4.80;;;1.40;;
11957;SDS011;6039;52.576;13.348;2023-04-25T13:55:07;3.60;;;1.43;;
11957;SDS011;6039;52.576;13.348;2023-04-25T14:00:12;2.50;;;1.23;;
11957;SDS011;6039;52.576;13.348;2023-04-25T14:05:19;2.97;;;1.30;;
11957;SDS011;6039;52.576;13.348;2023-04-25T14:10:23;2.50;;;1.27;;
11957;SDS011;6039;52.576;13.348;2023-04-25T14:15:27;4.50;;;1.43;;
11957;SDS011;6039;52.576;13.348;2023-04-25T14:20:35;2.30;;;1.23;;
11957;SDS011;6039;52.576;13.348;2023-04-25T14:25:39;3.10;;;1.20;;
11957;SDS011;6039;52.576;13.348;2023-04-25T14:30:44;3.57;;;1.30;;
11957;SDS011;6039;52.576;13.348;2023-04-25T14:35:51;2.90;;;1.40;;
11957;SDS011;6039;52.576;13.348;2023-04-25T14:40:55;2.03;;;1.23;;
11957;SDS011;6039;52.576;13.348;2023-04-25T14:46:00;3.73;;;1.43;;
11957;SDS011;6039;52.576;13.348;2023-04-25T14:51:07;4.53;;;1.60;;
11957;SDS011;6039;52.576;13.348;2023-04-25T14:56:11;3.93;;;1.37;;
11957;SDS011;6039;52.576;13.348;2023-04-25T15:01:15;1.40;;;1.10;;
11957;SDS011;6039;52.576;13.348;2023-04-25T15:06:23;3.10;;;1.20;;
11957;SDS011;6039;52.576;13.348;2023-04-25T15:11:28;4.47;;;1.07;;
11957;SDS011;6039;52.576;13.348;2023-04-25T15:16:32;2.20;;;1.20;;
11957;SDS011;6039;52.576;13.348;2023-04-25T15:21:39;2.30;;;1.10;;
11957;SDS011;6039;52.576;13.348;2023-04-25T15:26:43;2.13;;;1.10;;
11957;SDS011;6039;52.576;13.348;2023-04-25T15:31:48;3.10;;;0.80;;
11957;SDS011;6039;52.576;13.348;2023-04-25T15:36:54;3.27;;;1.17;;
11957;SDS011;6039;52.576;13.348;2023-04-25T15:41:59;0.93;;;0.67;;
11957;SDS011;6039;52.576;13.348;2023-04-25T15:47:03;2.17;;;0.97;;
11957;SDS011;6039;52.576;13.348;2023-04-25T15:52:09;3.13;;;1.10;;
11957;SDS011;6039;52.576;13.348;2023-04-25T15:57:13;4.57;;;1.17;;
11957;SDS011;6039;52.576;13.348;2023-04-25T16:02:17;3.30;;;0.97;;
11957;SDS011;6039;52.576;13.348;2023-04-25T16:07:24;1.37;;;0.90;;
11957;SDS011;6039;52.576;13.348;2023-04-25T16:12:29;1.87;;;0.90;;
11957;SDS011;6039;52.576;13.348;2023-04-25T16:17:33;2.70;;;0.87;;
11957;SDS011;6039;52.576;13.348;2023-04-25T16:22:40;2.37;;;0.77;;
11957;SDS011;6039;52.576;13.348;2023-04-25T16:27:46;0.80;;;0.70;;
11957;SDS011;6039;52.576;13.348;2023-04-25T16:32:50;0.97;;;0.73;;
11957;SDS011;6039;52.576;13.348;2023-04-25T16:37:58;3.53;;;0.80;;
11957;SDS011;6039;52.576;13.348;2023-04-25T16:43:02;1.77;;;0.87;;
11957;SDS011;6039;52.576;13.348;2023-04-25T16:48:06;1.27;;;0.60;;
11957;SDS011;6039;52.576;13.348;2023-04-25T16:53:13;0.93;;;0.70;;
11957;SDS011;6039;52.576;13.348;2023-04-25T16:58:17;2.93;;;1.10;;
11957;SDS011;6039;52.576;13.348;2023-04-25T17:03:22;1.10;;;0.83;;
11957;SDS011;6039;52.576;13.348;2023-04-25T17:08:28;4.33;;;1.13;;
11957;SDS011;6039;52.576;13.348;2023-04-25T17:13:32;1.90;;;0.80;;
11957;SDS011;6039;52.576;13.348;2023-04-25T17:18:36;2.30;;;1.07;;
11957;SDS011;6039;52.576;13.348;2023-04-25T17:23:43;2.80;;;0.90;;
11957;SDS011;6039;52.576;13.348;2023-04-25T17:28:47;2.00;;;1.00;;
11957;SDS011;6039;52.576;13.348;2023-04-25T17:33:51;1.17;;;0.97;;
11957;SDS011;6039;52.576;13.348;2023-04-25T17:38:59;5.83;;;0.93;;
11957;SDS011;6039;52.576;13.348;2023-04-25T17:44:05;2.13;;;0.80;;
11957;SDS011;6039;52.576;13.348;2023-04-25T17:49:09;1.97;;;1.07;;
11957;SDS011;6039;52.576;13.348;2023-04-25T17:54:15;3.70;;;0.97;;
11957;SDS011;6039;52.576;13.348;2023-04-25T17:59:21;1.37;;;0.93;;
11957;SDS011;6039;52.576;13.348;2023-04-25T18:04:25;1.43;;;0.97;;
11957;SDS011;6039;52.576;13.348;2023-04-25T18:09:32;2.97;;;1.20;;
11957;SDS011;6039;52.576;13.348;2023-04-25T18:14:36;2.90;;;1.10;;
11957;SDS011;6039;52.576;13.348;2023-04-25T18:19:40;2.53;;;1.33;;
11957;SDS011;6039;52.576;13.348;2023-04-25T18:24:47;3.47;;;1.50;;
11957;SDS011;6039;52.576;13.348;2023-04-25T18:29:52;2.17;;;1.07;;
11957;SDS011;6039;52.576;13.348;2023-04-25T18:34:55;2.47;;;1.00;;
11957;SDS011;6039;52.576;13.348;2023-04-25T18:40:02;1.60;;;1.27;;
11957;SDS011;6039;52.576;13.348;2023-04-25T18:45:09;6.53;;;1.70;;
11957;SDS011;6039;52.576;13.348;2023-04-25T18:50:13;3.03;;;1.17;;
11957;SDS011;6039;52.576;13.348;2023-04-25T18:55:22;2.03;;;1.10;;
11957;SDS011;6039;52.576;13.348;2023-04-25T19:00:26;1.83;;;1.07;;
11957;SDS011;6039;52.576;13.348;2023-04-25T19:05:30;4.00;;;1.20;;
11957;SDS011;6039;52.576;13.348;2023-04-25T19:10:36;1.43;;;0.97;;
11957;SDS011;6039;52.576;13.348;2023-04-25T19:15:40;2.47;;;1.10;;
11957;SDS011;6039;52.576;13.348;2023-04-25T19:20:44;2.50;;;1.37;;
11957;SDS011;6039;52.576;13.348;2023-04-25T19:25:51;1.50;;;0.97;;
11957;SDS011;6039;52.576;13.348;2023-04-25T19:30:55;2.03;;;1.07;;
11957;SDS011;6039;52.576;13.348;2023-04-25T19:35:59;1.67;;;0.90;;
11957;SDS011;6039;52.576;13.348;2023-04-25T19:41:05;1.33;;;1.07;;
11957;SDS011;6039;52.576;13.348;2023-04-25T19:46:10;2.30;;;1.03;;
11957;SDS011;6039;52.576;13.348;2023-04-25T19:51:15;4.07;;;1.40;;
11957;SDS011;6039;52.576;13.348;2023-04-25T19:56:22;2.17;;;1.20;;
11957;SDS011;6039;52.576;13.348;2023-04-25T20:01:27;2.43;;;1.03;;
11957;SDS011;6039;52.576;13.348;2023-04-25T20:06:30;2.00;;;1.07;;
11957;SDS011;6039;52.576;13.348;2023-04-25T20:11:38;3.33;;;1.10;;
11957;SDS011;6039;52.576;13.348;2023-04-25T20:16:42;2.40;;;1.30;;
11957;SDS011;6039;52.576;13.348;2023-04-25T20:21:46;1.43;;;1.00;;
11957;SDS011;6039;52.576;13.348;2023-04-25T20:26:53;2.60;;;1.23;;
11957;SDS011;6039;52.576;13.348;2023-04-25T20:31:57;4.50;;;1.63;;
11957;SDS011;6039;52.576;13.348;2023-04-25T20:37:02;2.37;;;1.00;;
11957;SDS011;6039;52.576;13.348;2023-04-25T20:42:10;3.50;;;1.30;;
11957;SDS011;6039;52.576;13.348;2023-04-25T20:47:14;4.57;;;1.23;;
11957;SDS011;6039;52.576;13.348;2023-04-25T20:52:18;1.77;;;1.10;;
11957;SDS011;6039;52.576;13.348;2023-04-25T20:57:25;5.43;;;1.23;;
11957;SDS011;6039;52.576;13.348;2023-04-25T21:02:29;2.03;;;1.13;;
11957;SDS011;6039;52.576;13.348;2023-04-25T21:07:34;2.20;;;1.10;;
11957;SDS011;6039;52.576;13.348;2023-04-25T21:12:41;1.87;;;1.10;;
11957;SDS011;6039;52.576;13.348;2023-04-25T21:17:48;2.70;;;1.17;;
11957;SDS011;6039;52.576;13.348;2023-04-25T21:22:53;2.90;;;1.30;;
11957;SDS011;6039;52.576;13.348;2023-04-25T21:27:59;3.00;;;1.20;;
11957;SDS011;6039;52.576;13.348;2023-04-25T21:33:03;6.37;;;1.40;;
11957;SDS011;6039;52.576;13.348;2023-04-25T21:38:07;2.93;;;1.23;;
11957;SDS011;6039;52.576;13.348;2023-04-25T21:43:14;2.63;;;1.40;;
11957;SDS011;6039;52.576;13.348;2023-04-25T21:48:18;2.40;;;1.10;;
11957;SDS011;6039;52.576;13.348;2023-04-25T21:53:22;2.67;;;1.03;;
11957;SDS011;6039;52.576;13.348;2023-04-25T21:58:29;2.37;;;1.00;;
11957;SDS011;6039;52.576;13.348;2023-04-25T22:03:33;5.03;;;1.33;;
11957;SDS011;6039;52.576;13.348;2023-04-25T22:08:37;3.37;;;1.23;;
11957;SDS011;6039;52.576;13.348;2023-04-25T22:13:44;2.17;;;0.83;;
11957;SDS011;6039;52.576;13.348;2023-04-25T22:18:49;1.90;;;1.50;;
11957;SDS011;6039;52.576;13.348;2023-04-25T22:23:53;1.77;;;1.00;;
11957;SDS011;6039;52.576;13.348;2023-04-25T22:29:01;2.43;;;1.33;;
11957;SDS011;6039;52.576;13.348;2023-04-25T22:34:06;4.93;;;1.00;;
11957;SDS011;6039;52.576;13.348;2023-04-25T22:39:10;1.33;;;1.03;;
11957;SDS011;6039;52.576;13.348;2023-04-25T22:44:18;3.77;;;1.20;;
11957;SDS011;6039;52.576;13.348;2023-04-25T22:49:22;1.23;;;0.90;;
11957;SDS011;6039;52.576;13.348;2023-04-25T22:54:26;2.13;;;1.10;;
11957;SDS011;6039;52.576;13.348;2023-04-25T22:59:32;1.87;;;1.00;;
11957;SDS011;6039;52.576;13.348;2023-04-25T23:04:37;1.53;;;1.00;;
11957;SDS011;6039;52.576;13.348;2023-04-25T23:09:42;2.40;;;1.20;;
11957;SDS011;6039;52.576;13.348;2023-04-25T23:14:50;3.00;;;1.10;;
11957;SDS011;6039;52.576;13.348;2023-04-25T23:19:54;2.63;;;1.13;;
11957;SDS011;6039;52.576;13.348;2023-04-25T23:24:58;7.20;;;1.63;;
11957;SDS011;6039;52.576;13.348;2023-04-25T23:30:05;2.13;;;1.20;;
11957;SDS011;6039;52.576;13.348;2023-04-25T23:35:10;4.37;;;1.53;;
11957;SDS011;6039;52.576;13.348;2023-04-25T23:40:14;2.20;;;1.20;;
11957;SDS011;6039;52.576;13.348;2023-04-25T23:45:21;5.87;;;1.47;;
11957;SDS011;6039;52.576;13.348;2023-04-25T23:50:25;2.00;;;1.00;;
11957;SDS011;6039;52.576;13.348;2023-04-25T23:55:29;1.47;;;1.30;;
